Accueil
METAR-TAF:

METAR-TAF

Aéroports :

Nancy, France

Base aérienne 133 Nancy-Ochey

latitude: 48-35N, longitude: 005-58E, altitude: 336 m

Observation

Le bulletin a été fait il y a 36 minutes, à 01:00 UTC
Vent 4 kt de sud/sud-est
Température 15°C
Humidité 63%
Pression 1024 hPa
Visibilité 10 km ou plus
pas de nuages en-dessous de 1500 mètres et pas de cumulonimbus.

METAR: LFSO 170100Z AUTO 16004KT CAVOK 15/08 Q1024

Heure: 03:36 (01:36 UTC)

Prévision

Le bulletin a été fait il y a 11 heures et 36 minutes, à 14:00 UTC
Prévision valable du 16 à 15 UTC au 17 à 15 UTC
Vent 12 kt de sud
Visibilité 10 km ou plus
pas de nuages en-dessous de 1500 mètres et pas de cumulonimbus.

TAF: LFSO 161400Z 1615/1715 17012KT CAVOK

Observations et prévisions météorologiques de plus de 4000 aéroports (messages METAR et TAF).

Les stations disponibles sont représentées par des disques jaunes et rouges sur la carte.

Passer la souris dessus pour voir le nom de la station.

Cliquer dessus pour voir les observations et prévisions météorologiques.

Pour changer de carte: cliquez sur les boutons verts avec une croix noire pour zoomer, sur le bouton vert avec un tiret pour effectuer un zoom arrière, ou sur les flèches vertes pour les cartes adjacentes.


METAR-TAF: